sensor_id;sensor_type;location;lat;lon;timestamp;P1;durP1;ratioP1;P2;durP2;ratioP2
45206;SDS011;30950;53.086;21.576;2022-11-03T00:01:44;25.85;;;13.05;;
45206;SDS011;30950;53.086;21.576;2022-11-03T00:04:17;22.95;;;13.23;;
45206;SDS011;30950;53.086;21.576;2022-11-03T00:06:50;25.67;;;14.43;;
45206;SDS011;30950;53.086;21.576;2022-11-03T00:09:19;21.52;;;12.75;;
45206;SDS011;30950;53.086;21.576;2022-11-03T00:11:49;25.00;;;14.05;;
45206;SDS011;30950;53.086;21.576;2022-11-03T00:14:17;22.15;;;13.50;;
45206;SDS011;30950;53.086;21.576;2022-11-03T00:16:45;23.00;;;13.32;;
45206;SDS011;30950;53.086;21.576;2022-11-03T00:19:13;23.77;;;13.40;;
45206;SDS011;30950;53.086;21.576;2022-11-03T00:21:43;21.20;;;11.85;;
45206;SDS011;30950;53.086;21.576;2022-11-03T00:24:11;25.08;;;12.90;;
45206;SDS011;30950;53.086;21.576;2022-11-03T00:26:39;21.13;;;12.07;;
45206;SDS011;30950;53.086;21.576;2022-11-03T00:29:10;22.05;;;12.75;;
45206;SDS011;30950;53.086;21.576;2022-11-03T00:31:39;23.15;;;12.02;;
45206;SDS011;30950;53.086;21.576;2022-11-03T00:34:08;20.15;;;11.68;;
45206;SDS011;30950;53.086;21.576;2022-11-03T00:36:41;21.88;;;11.57;;
45206;SDS011;30950;53.086;21.576;2022-11-03T00:39:09;19.02;;;10.73;;
45206;SDS011;30950;53.086;21.576;2022-11-03T00:41:37;19.80;;;10.82;;
45206;SDS011;30950;53.086;21.576;2022-11-03T00:44:05;19.42;;;11.77;;
45206;SDS011;30950;53.086;21.576;2022-11-03T00:46:32;21.50;;;12.25;;
45206;SDS011;30950;53.086;21.576;2022-11-03T00:49:02;18.83;;;11.35;;
45206;SDS011;30950;53.086;21.576;2022-11-03T00:51:30;17.27;;;10.77;;
45206;SDS011;30950;53.086;21.576;2022-11-03T00:54:00;20.77;;;12.65;;
45206;SDS011;30950;53.086;21.576;2022-11-03T00:56:33;21.35;;;11.55;;
45206;SDS011;30950;53.086;21.576;2022-11-03T00:59:05;17.33;;;11.18;;
45206;SDS011;30950;53.086;21.576;2022-11-03T01:01:34;17.85;;;11.70;;
45206;SDS011;30950;53.086;21.576;2022-11-03T01:04:11;22.13;;;10.48;;
45206;SDS011;30950;53.086;21.576;2022-11-03T01:06:58;20.42;;;11.32;;
45206;SDS011;30950;53.086;21.576;2022-11-03T01:09:29;19.85;;;11.38;;
45206;SDS011;30950;53.086;21.576;2022-11-03T01:14:47;23.92;;;10.57;;
45206;SDS011;30950;53.086;21.576;2022-11-03T01:17:17;23.52;;;11.50;;
45206;SDS011;30950;53.086;21.576;2022-11-03T01:19:49;21.15;;;10.88;;
45206;SDS011;30950;53.086;21.576;2022-11-03T01:22:17;17.58;;;10.30;;
45206;SDS011;30950;53.086;21.576;2022-11-03T01:24:45;22.67;;;11.25;;
45206;SDS011;30950;53.086;21.576;2022-11-03T01:27:15;21.80;;;11.85;;
45206;SDS011;30950;53.086;21.576;2022-11-03T01:29:43;27.70;;;13.02;;
45206;SDS011;30950;53.086;21.576;2022-11-03T01:32:11;25.23;;;12.30;;
45206;SDS011;30950;53.086;21.576;2022-11-03T01:34:39;20.50;;;11.70;;
45206;SDS011;30950;53.086;21.576;2022-11-03T01:37:07;19.88;;;11.77;;
45206;SDS011;30950;53.086;21.576;2022-11-03T01:39:34;20.27;;;10.43;;
45206;SDS011;30950;53.086;21.576;2022-11-03T01:42:02;22.73;;;12.93;;
45206;SDS011;30950;53.086;21.576;2022-11-03T01:44:34;19.27;;;10.95;;
45206;SDS011;30950;53.086;21.576;2022-11-03T01:52:47;19.23;;;11.20;;
45206;SDS011;30950;53.086;21.576;2022-11-03T01:55:21;21.92;;;10.50;;
45206;SDS011;30950;53.086;21.576;2022-11-03T02:00:47;17.20;;;9.95;;
45206;SDS011;30950;53.086;21.576;2022-11-03T02:03:21;22.58;;;11.27;;
45206;SDS011;30950;53.086;21.576;2022-11-03T02:05:49;17.48;;;10.60;;
45206;SDS011;30950;53.086;21.576;2022-11-03T02:08:53;17.10;;;9.82;;
45206;SDS011;30950;53.086;21.576;2022-11-03T02:11:17;19.27;;;9.25;;
45206;SDS011;30950;53.086;21.576;2022-11-03T02:14:03;18.20;;;9.98;;
45206;SDS011;30950;53.086;21.576;2022-11-03T02:16:30;17.58;;;9.77;;
45206;SDS011;30950;53.086;21.576;2022-11-03T02:18:59;16.58;;;10.15;;
45206;SDS011;30950;53.086;21.576;2022-11-03T02:27:48;21.20;;;9.35;;
45206;SDS011;30950;53.086;21.576;2022-11-03T02:30:16;19.25;;;10.20;;
45206;SDS011;30950;53.086;21.576;2022-11-03T02:36:02;15.35;;;9.82;;
45206;SDS011;30950;53.086;21.576;2022-11-03T02:38:46;22.13;;;9.55;;
45206;SDS011;30950;53.086;21.576;2022-11-03T02:41:20;16.25;;;8.65;;
45206;SDS011;30950;53.086;21.576;2022-11-03T02:43:49;18.35;;;9.57;;
45206;SDS011;30950;53.086;21.576;2022-11-03T02:46:17;17.08;;;8.60;;
45206;SDS011;30950;53.086;21.576;2022-11-03T02:48:46;16.00;;;8.90;;
45206;SDS011;30950;53.086;21.576;2022-11-03T02:51:14;16.63;;;8.48;;
45206;SDS011;30950;53.086;21.576;2022-11-03T02:53:43;18.23;;;8.30;;
45206;SDS011;30950;53.086;21.576;2022-11-03T02:56:18;18.05;;;8.70;;
45206;SDS011;30950;53.086;21.576;2022-11-03T03:01:24;14.35;;;8.77;;
45206;SDS011;30950;53.086;21.576;2022-11-03T03:04:49;15.73;;;7.90;;
45206;SDS011;30950;53.086;21.576;2022-11-03T03:07:14;16.50;;;9.57;;
45206;SDS011;30950;53.086;21.576;2022-11-03T03:09:48;20.75;;;9.70;;
45206;SDS011;30950;53.086;21.576;2022-11-03T03:12:24;12.98;;;7.88;;
45206;SDS011;30950;53.086;21.576;2022-11-03T03:14:53;14.02;;;7.63;;
45206;SDS011;30950;53.086;21.576;2022-11-03T03:21:12;14.38;;;8.40;;
45206;SDS011;30950;53.086;21.576;2022-11-03T03:23:23;14.90;;;8.07;;
45206;SDS011;30950;53.086;21.576;2022-11-03T03:28:25;16.08;;;7.80;;
45206;SDS011;30950;53.086;21.576;2022-11-03T03:31:37;16.10;;;7.40;;
45206;SDS011;30950;53.086;21.576;2022-11-03T03:34:12;15.57;;;8.30;;
45206;SDS011;30950;53.086;21.576;2022-11-03T03:37:02;15.13;;;7.78;;
45206;SDS011;30950;53.086;21.576;2022-11-03T03:39:33;16.65;;;9.13;;
45206;SDS011;30950;53.086;21.576;2022-11-03T03:42:03;14.07;;;7.68;;
45206;SDS011;30950;53.086;21.576;2022-11-03T03:44:34;13.73;;;7.93;;
45206;SDS011;30950;53.086;21.576;2022-11-03T03:47:06;15.98;;;8.23;;
45206;SDS011;30950;53.086;21.576;2022-11-03T03:49:38;17.08;;;7.50;;
45206;SDS011;30950;53.086;21.576;2022-11-03T03:52:06;14.93;;;7.25;;
45206;SDS011;30950;53.086;21.576;2022-11-03T03:54:35;13.30;;;7.45;;
45206;SDS011;30950;53.086;21.576;2022-11-03T03:57:03;14.23;;;8.07;;
45206;SDS011;30950;53.086;21.576;2022-11-03T03:59:32;14.52;;;7.65;;
45206;SDS011;30950;53.086;21.576;2022-11-03T04:02:00;17.90;;;8.90;;
45206;SDS011;30950;53.086;21.576;2022-11-03T04:04:28;18.63;;;8.15;;
45206;SDS011;30950;53.086;21.576;2022-11-03T04:06:55;16.15;;;7.78;;
45206;SDS011;30950;53.086;21.576;2022-11-03T04:09:41;16.85;;;8.52;;
45206;SDS011;30950;53.086;21.576;2022-11-03T04:12:08;12.85;;;7.40;;
45206;SDS011;30950;53.086;21.576;2022-11-03T04:14:54;15.80;;;7.50;;
45206;SDS011;30950;53.086;21.576;2022-11-03T04:17:41;17.70;;;8.10;;
45206;SDS011;30950;53.086;21.576;2022-11-03T04:20:30;11.77;;;7.80;;
45206;SDS011;30950;53.086;21.576;2022-11-03T04:23:16;14.55;;;7.90;;
45206;SDS011;30950;53.086;21.576;2022-11-03T04:25:49;14.18;;;7.88;;
45206;SDS011;30950;53.086;21.576;2022-11-03T04:28:18;16.13;;;7.32;;
45206;SDS011;30950;53.086;21.576;2022-11-03T04:30:45;17.85;;;7.15;;
45206;SDS011;30950;53.086;21.576;2022-11-03T04:33:13;16.73;;;7.40;;
45206;SDS011;30950;53.086;21.576;2022-11-03T04:35:43;15.93;;;8.18;;
45206;SDS011;30950;53.086;21.576;2022-11-03T04:40:52;17.25;;;8.13;;
45206;SDS011;30950;53.086;21.576;2022-11-03T04:43:43;15.95;;;7.28;;
45206;SDS011;30950;53.086;21.576;2022-11-03T04:46:10;14.43;;;7.10;;
45206;SDS011;30950;53.086;21.576;2022-11-03T04:48:41;13.27;;;7.95;;
45206;SDS011;30950;53.086;21.576;2022-11-03T04:51:14;14.25;;;8.15;;
45206;SDS011;30950;53.086;21.576;2022-11-03T04:53:50;15.35;;;7.25;;
45206;SDS011;30950;53.086;21.576;2022-11-03T04:56:21;17.58;;;7.28;;
45206;SDS011;30950;53.086;21.576;2022-11-03T04:58:51;12.32;;;7.28;;
45206;SDS011;30950;53.086;21.576;2022-11-03T05:01:20;14.00;;;6.78;;
45206;SDS011;30950;53.086;21.576;2022-11-03T05:03:51;20.08;;;7.05;;
45206;SDS011;30950;53.086;21.576;2022-11-03T05:06:25;16.27;;;7.18;;
45206;SDS011;30950;53.086;21.576;2022-11-03T05:08:57;18.33;;;7.72;;
45206;SDS011;30950;53.086;21.576;2022-11-03T05:11:30;13.82;;;6.53;;
45206;SDS011;30950;53.086;21.576;2022-11-03T05:14:11;17.45;;;7.22;;
45206;SDS011;30950;53.086;21.576;2022-11-03T05:16:51;15.55;;;7.03;;
45206;SDS011;30950;53.086;21.576;2022-11-03T05:22:03;13.52;;;7.18;;
45206;SDS011;30950;53.086;21.576;2022-11-03T05:24:31;16.42;;;7.78;;
45206;SDS011;30950;53.086;21.576;2022-11-03T05:26:59;15.77;;;8.52;;
45206;SDS011;30950;53.086;21.576;2022-11-03T05:29:37;14.15;;;7.75;;
45206;SDS011;30950;53.086;21.576;2022-11-03T05:32:09;17.88;;;7.65;;
45206;SDS011;30950;53.086;21.576;2022-11-03T05:34:43;15.73;;;7.80;;
45206;SDS011;30950;53.086;21.576;2022-11-03T05:39:57;12.80;;;6.63;;
45206;SDS011;30950;53.086;21.576;2022-11-03T05:42:33;15.23;;;6.68;;
45206;SDS011;30950;53.086;21.576;2022-11-03T05:45:24;11.98;;;6.85;;
45206;SDS011;30950;53.086;21.576;2022-11-03T05:47:57;13.57;;;6.75;;
45206;SDS011;30950;53.086;21.576;2022-11-03T05:50:27;15.77;;;6.88;;
45206;SDS011;30950;53.086;21.576;2022-11-03T05:53:03;12.98;;;7.72;;
45206;SDS011;30950;53.086;21.576;2022-11-03T05:55:35;12.45;;;6.85;;
45206;SDS011;30950;53.086;21.576;2022-11-03T05:58:04;14.18;;;6.60;;
45206;SDS011;30950;53.086;21.576;2022-11-03T06:03:59;13.20;;;7.05;;
45206;SDS011;30950;53.086;21.576;2022-11-03T06:06:34;16.15;;;7.40;;
45206;SDS011;30950;53.086;21.576;2022-11-03T06:09:22;13.60;;;7.32;;
45206;SDS011;30950;53.086;21.576;2022-11-03T06:11:53;16.52;;;7.85;;
45206;SDS011;30950;53.086;21.576;2022-11-03T06:14:23;16.02;;;7.93;;
45206;SDS011;30950;53.086;21.576;2022-11-03T06:16:53;18.85;;;9.40;;
45206;SDS011;30950;53.086;21.576;2022-11-03T06:19:28;16.52;;;6.68;;
45206;SDS011;30950;53.086;21.576;2022-11-03T06:22:10;14.80;;;7.40;;
45206;SDS011;30950;53.086;21.576;2022-11-03T06:24:45;13.77;;;7.00;;
45206;SDS011;30950;53.086;21.576;2022-11-03T06:27:21;11.40;;;6.78;;
45206;SDS011;30950;53.086;21.576;2022-11-03T06:29:51;10.93;;;6.30;;
45206;SDS011;30950;53.086;21.576;2022-11-03T06:32:23;15.15;;;8.82;;
45206;SDS011;30950;53.086;21.576;2022-11-03T06:34:51;15.95;;;8.55;;
45206;SDS011;30950;53.086;21.576;2022-11-03T06:37:22;14.23;;;8.32;;
45206;SDS011;30950;53.086;21.576;2022-11-03T06:39:53;18.00;;;10.00;;
45206;SDS011;30950;53.086;21.576;2022-11-03T06:42:25;14.50;;;8.73;;
45206;SDS011;30950;53.086;21.576;2022-11-03T06:44:57;18.60;;;9.07;;
45206;SDS011;30950;53.086;21.576;2022-11-03T06:47:27;16.10;;;9.15;;
45206;SDS011;30950;53.086;21.576;2022-11-03T06:49:55;17.23;;;11.35;;
45206;SDS011;30950;53.086;21.576;2022-11-03T06:52:31;15.88;;;8.85;;
45206;SDS011;30950;53.086;21.576;2022-11-03T06:57:41;15.75;;;8.20;;
45206;SDS011;30950;53.086;21.576;2022-11-03T07:00:18;14.52;;;7.70;;
45206;SDS011;30950;53.086;21.576;2022-11-03T07:03:39;20.25;;;8.10;;
45206;SDS011;30950;53.086;21.576;2022-11-03T07:06:01;15.68;;;7.55;;
45206;SDS011;30950;53.086;21.576;2022-11-03T07:11:18;14.20;;;7.78;;
45206;SDS011;30950;53.086;21.576;2022-11-03T07:13:47;13.55;;;7.07;;
45206;SDS011;30950;53.086;21.576;2022-11-03T07:16:24;16.20;;;8.20;;
45206;SDS011;30950;53.086;21.576;2022-11-03T07:19:36;16.60;;;7.63;;
45206;SDS011;30950;53.086;21.576;2022-11-03T07:22:22;16.55;;;6.85;;
45206;SDS011;30950;53.086;21.576;2022-11-03T07:24:53;16.55;;;7.30;;
45206;SDS011;30950;53.086;21.576;2022-11-03T07:27:23;13.70;;;6.78;;
45206;SDS011;30950;53.086;21.576;2022-11-03T07:32:33;11.20;;;6.40;;
45206;SDS011;30950;53.086;21.576;2022-11-03T07:37:35;12.88;;;7.45;;
45206;SDS011;30950;53.086;21.576;2022-11-03T07:40:04;14.10;;;6.50;;
45206;SDS011;30950;53.086;21.576;2022-11-03T07:42:37;10.02;;;5.82;;
45206;SDS011;30950;53.086;21.576;2022-11-03T07:45:21;14.80;;;6.70;;
45206;SDS011;30950;53.086;21.576;2022-11-03T07:50:21;14.02;;;6.93;;
45206;SDS011;30950;53.086;21.576;2022-11-03T07:52:48;21.48;;;6.75;;
45206;SDS011;30950;53.086;21.576;2022-11-03T07:55:15;13.00;;;5.75;;
45206;SDS011;30950;53.086;21.576;2022-11-03T07:57:43;14.27;;;6.20;;
45206;SDS011;30950;53.086;21.576;2022-11-03T08:00:11;15.32;;;6.03;;
45206;SDS011;30950;53.086;21.576;2022-11-03T08:02:52;15.52;;;5.95;;
45206;SDS011;30950;53.086;21.576;2022-11-03T08:07:52;11.13;;;5.72;;
45206;SDS011;30950;53.086;21.576;2022-11-03T08:10:19;12.75;;;5.00;;
45206;SDS011;30950;53.086;21.576;2022-11-03T08:12:47;11.10;;;5.00;;
45206;SDS011;30950;53.086;21.576;2022-11-03T08:15:14;10.98;;;4.80;;
45206;SDS011;30950;53.086;21.576;2022-11-03T08:17:41;14.80;;;4.55;;
45206;SDS011;30950;53.086;21.576;2022-11-03T08:20:09;13.90;;;5.20;;
45206;SDS011;30950;53.086;21.576;2022-11-03T08:22:36;17.60;;;5.45;;
45206;SDS011;30950;53.086;21.576;2022-11-03T08:25:04;15.15;;;6.25;;
45206;SDS011;30950;53.086;21.576;2022-11-03T08:27:32;11.10;;;4.63;;
45206;SDS011;30950;53.086;21.576;2022-11-03T08:29:59;7.70;;;4.65;;
45206;SDS011;30950;53.086;21.576;2022-11-03T08:32:26;17.25;;;9.07;;
45206;SDS011;30950;53.086;21.576;2022-11-03T08:34:54;14.57;;;4.20;;
45206;SDS011;30950;53.086;21.576;2022-11-03T08:37:21;11.70;;;5.40;;
45206;SDS011;30950;53.086;21.576;2022-11-03T08:39:49;14.93;;;5.55;;
45206;SDS011;30950;53.086;21.576;2022-11-03T08:42:16;15.77;;;6.38;;
45206;SDS011;30950;53.086;21.576;2022-11-03T08:44:44;12.90;;;5.32;;
45206;SDS011;30950;53.086;21.576;2022-11-03T08:47:11;12.35;;;4.88;;
45206;SDS011;30950;53.086;21.576;2022-11-03T08:49:39;9.10;;;4.47;;
45206;SDS011;30950;53.086;21.576;2022-11-03T08:52:06;12.40;;;4.38;;
45206;SDS011;30950;53.086;21.576;2022-11-03T08:54:34;21.90;;;13.73;;
45206;SDS011;30950;53.086;21.576;2022-11-03T08:57:01;12.80;;;4.82;;
45206;SDS011;30950;53.086;21.576;2022-11-03T08:59:28;29.77;;;15.68;;
45206;SDS011;30950;53.086;21.576;2022-11-03T09:01:55;17.55;;;5.85;;
45206;SDS011;30950;53.086;21.576;2022-11-03T09:04:24;9.95;;;4.18;;
45206;SDS011;30950;53.086;21.576;2022-11-03T09:06:51;14.40;;;5.50;;
45206;SDS011;30950;53.086;21.576;2022-11-03T09:09:19;12.85;;;6.57;;
45206;SDS011;30950;53.086;21.576;2022-11-03T09:12:06;14.60;;;4.15;;
45206;SDS011;30950;53.086;21.576;2022-11-03T09:14:34;13.02;;;4.00;;
45206;SDS011;30950;53.086;21.576;2022-11-03T09:17:01;8.13;;;3.60;;
45206;SDS011;30950;53.086;21.576;2022-11-03T09:19:34;13.30;;;4.03;;
45206;SDS011;30950;53.086;21.576;2022-11-03T09:22:01;11.30;;;4.45;;
45206;SDS011;30950;53.086;21.576;2022-11-03T09:24:28;11.23;;;3.88;;
45206;SDS011;30950;53.086;21.576;2022-11-03T09:26:56;10.27;;;3.65;;
45206;SDS011;30950;53.086;21.576;2022-11-03T09:29:28;13.57;;;4.65;;
45206;SDS011;30950;53.086;21.576;2022-11-03T09:32:11;12.13;;;3.78;;
45206;SDS011;30950;53.086;21.576;2022-11-03T09:34:41;10.90;;;2.95;;
45206;SDS011;30950;53.086;21.576;2022-11-03T09:37:08;13.32;;;3.50;;
45206;SDS011;30950;53.086;21.576;2022-11-03T09:39:36;13.95;;;4.47;;
45206;SDS011;30950;53.086;21.576;2022-11-03T09:42:03;10.95;;;4.10;;
45206;SDS011;30950;53.086;21.576;2022-11-03T09:44:32;17.17;;;6.35;;
45206;SDS011;30950;53.086;21.576;2022-11-03T09:47:02;15.32;;;5.32;;
45206;SDS011;30950;53.086;21.576;2022-11-03T09:49:30;12.60;;;4.93;;
45206;SDS011;30950;53.086;21.576;2022-11-03T09:52:02;11.40;;;4.20;;
45206;SDS011;30950;53.086;21.576;2022-11-03T09:54:30;19.27;;;9.18;;
45206;SDS011;30950;53.086;21.576;2022-11-03T09:57:04;11.18;;;5.55;;
45206;SDS011;30950;53.086;21.576;2022-11-03T09:59:36;12.57;;;3.92;;
45206;SDS011;30950;53.086;21.576;2022-11-03T10:02:09;12.88;;;4.47;;
45206;SDS011;30950;53.086;21.576;2022-11-03T10:04:48;10.10;;;3.80;;
45206;SDS011;30950;53.086;21.576;2022-11-03T10:07:18;12.45;;;4.32;;
45206;SDS011;30950;53.086;21.576;2022-11-03T10:09:47;8.07;;;3.50;;
45206;SDS011;30950;53.086;21.576;2022-11-03T10:12:17;9.52;;;3.92;;
45206;SDS011;30950;53.086;21.576;2022-11-03T10:14:44;15.05;;;5.68;;
45206;SDS011;30950;53.086;21.576;2022-11-03T10:17:17;10.35;;;4.13;;
45206;SDS011;30950;53.086;21.576;2022-11-03T10:19:47;13.43;;;4.05;;
45206;SDS011;30950;53.086;21.576;2022-11-03T10:22:20;13.60;;;5.18;;
45206;SDS011;30950;53.086;21.576;2022-11-03T10:24:48;15.88;;;3.42;;
45206;SDS011;30950;53.086;21.576;2022-11-03T10:27:35;7.78;;;2.90;;
45206;SDS011;30950;53.086;21.576;2022-11-03T10:30:12;11.00;;;3.95;;
45206;SDS011;30950;53.086;21.576;2022-11-03T10:32:39;11.35;;;3.88;;
45206;SDS011;30950;53.086;21.576;2022-11-03T10:38:19;13.68;;;3.72;;
45206;SDS011;30950;53.086;21.576;2022-11-03T10:40:54;12.80;;;3.97;;
45206;SDS011;30950;53.086;21.576;2022-11-03T10:43:22;10.43;;;3.15;;
45206;SDS011;30950;53.086;21.576;2022-11-03T10:45:49;11.50;;;3.25;;
45206;SDS011;30950;53.086;21.576;2022-11-03T10:49:01;11.60;;;3.67;;
45206;SDS011;30950;53.086;21.576;2022-11-03T10:51:43;10.98;;;3.97;;
45206;SDS011;30950;53.086;21.576;2022-11-03T10:54:15;12.95;;;4.00;;
45206;SDS011;30950;53.086;21.576;2022-11-03T10:56:44;11.32;;;3.55;;
45206;SDS011;30950;53.086;21.576;2022-11-03T10:59:19;12.63;;;3.63;;
45206;SDS011;30950;53.086;21.576;2022-11-03T11:01:49;10.75;;;3.75;;
45206;SDS011;30950;53.086;21.576;2022-11-03T11:04:18;9.27;;;3.45;;
45206;SDS011;30950;53.086;21.576;2022-11-03T11:06:46;23.83;;;10.18;;
45206;SDS011;30950;53.086;21.576;2022-11-03T11:09:22;10.27;;;4.07;;
45206;SDS011;30950;53.086;21.576;2022-11-03T11:12:13;7.72;;;3.22;;
45206;SDS011;30950;53.086;21.576;2022-11-03T11:17:46;12.13;;;4.07;;
45206;SDS011;30950;53.086;21.576;2022-11-03T11:22:55;13.32;;;3.90;;
45206;SDS011;30950;53.086;21.576;2022-11-03T11:28:37;11.90;;;3.60;;
45206;SDS011;30950;53.086;21.576;2022-11-03T11:36:36;11.45;;;5.30;;
45206;SDS011;30950;53.086;21.576;2022-11-03T11:47:22;17.83;;;7.38;;
45206;SDS011;30950;53.086;21.576;2022-11-03T11:58:12;14.88;;;6.53;;
45206;SDS011;30950;53.086;21.576;2022-11-03T12:03:34;25.23;;;9.95;;
45206;SDS011;30950;53.086;21.576;2022-11-03T12:06:04;27.30;;;11.35;;
45206;SDS011;30950;53.086;21.576;2022-11-03T12:08:32;8.45;;;2.92;;
45206;SDS011;30950;53.086;21.576;2022-11-03T12:11:00;18.35;;;8.80;;
45206;SDS011;30950;53.086;21.576;2022-11-03T12:14:03;20.08;;;7.50;;
45206;SDS011;30950;53.086;21.576;2022-11-03T12:16:26;20.60;;;9.38;;
45206;SDS011;30950;53.086;21.576;2022-11-03T12:22:02;10.52;;;3.60;;
45206;SDS011;30950;53.086;21.576;2022-11-03T12:26:58;13.73;;;5.18;;
45206;SDS011;30950;53.086;21.576;2022-11-03T12:29:27;8.77;;;2.97;;
45206;SDS011;30950;53.086;21.576;2022-11-03T12:31:54;10.20;;;3.72;;
45206;SDS011;30950;53.086;21.576;2022-11-03T12:34:21;18.10;;;6.68;;
45206;SDS011;30950;53.086;21.576;2022-11-03T12:36:48;18.73;;;7.32;;
45206;SDS011;30950;53.086;21.576;2022-11-03T12:39:21;14.77;;;6.57;;
45206;SDS011;30950;53.086;21.576;2022-11-03T12:41:48;11.27;;;3.45;;
45206;SDS011;30950;53.086;21.576;2022-11-03T12:44:16;22.00;;;7.10;;
45206;SDS011;30950;53.086;21.576;2022-11-03T12:46:43;11.73;;;3.80;;
45206;SDS011;30950;53.086;21.576;2022-11-03T12:49:10;9.15;;;3.92;;
45206;SDS011;30950;53.086;21.576;2022-11-03T12:51:38;11.30;;;4.80;;
45206;SDS011;30950;53.086;21.576;2022-11-03T12:54:05;17.08;;;6.35;;
45206;SDS011;30950;53.086;21.576;2022-11-03T12:56:32;8.52;;;2.88;;
45206;SDS011;30950;53.086;21.576;2022-11-03T12:58:59;18.40;;;6.07;;
45206;SDS011;30950;53.086;21.576;2022-11-03T13:01:27;16.63;;;4.05;;
45206;SDS011;30950;53.086;21.576;2022-11-03T13:03:55;11.90;;;4.18;;
45206;SDS011;30950;53.086;21.576;2022-11-03T13:06:22;13.23;;;5.07;;
45206;SDS011;30950;53.086;21.576;2022-11-03T13:08:50;14.95;;;4.93;;
45206;SDS011;30950;53.086;21.576;2022-11-03T13:11:19;10.20;;;4.22;;
45206;SDS011;30950;53.086;21.576;2022-11-03T13:14:04;12.25;;;3.72;;
45206;SDS011;30950;53.086;21.576;2022-11-03T13:16:32;9.23;;;4.28;;
45206;SDS011;30950;53.086;21.576;2022-11-03T13:18:59;14.07;;;4.85;;
45206;SDS011;30950;53.086;21.576;2022-11-03T13:21:27;12.85;;;4.20;;
45206;SDS011;30950;53.086;21.576;2022-11-03T13:23:54;15.10;;;6.78;;
45206;SDS011;30950;53.086;21.576;2022-11-03T13:26:22;15.20;;;5.95;;
45206;SDS011;30950;53.086;21.576;2022-11-03T13:28:49;11.43;;;5.40;;
45206;SDS011;30950;53.086;21.576;2022-11-03T13:31:17;7.07;;;3.17;;
45206;SDS011;30950;53.086;21.576;2022-11-03T13:33:44;8.38;;;2.80;;
45206;SDS011;30950;53.086;21.576;2022-11-03T13:36:12;12.45;;;4.53;;
45206;SDS011;30950;53.086;21.576;2022-11-03T13:38:39;13.10;;;4.00;;
45206;SDS011;30950;53.086;21.576;2022-11-03T13:41:07;13.65;;;4.90;;
45206;SDS011;30950;53.086;21.576;2022-11-03T13:43:35;9.35;;;3.17;;
45206;SDS011;30950;53.086;21.576;2022-11-03T13:46:02;9.38;;;2.80;;
45206;SDS011;30950;53.086;21.576;2022-11-03T13:48:31;8.63;;;3.15;;
45206;SDS011;30950;53.086;21.576;2022-11-03T13:51:18;10.27;;;3.10;;
45206;SDS011;30950;53.086;21.576;2022-11-03T13:53:47;11.18;;;3.60;;
45206;SDS011;30950;53.086;21.576;2022-11-03T13:56:34;9.65;;;3.28;;
45206;SDS011;30950;53.086;21.576;2022-11-03T13:59:21;12.90;;;4.78;;
45206;SDS011;30950;53.086;21.576;2022-11-03T14:01:54;11.45;;;4.97;;
45206;SDS011;30950;53.086;21.576;2022-11-03T14:07:10;16.95;;;5.20;;
45206;SDS011;30950;53.086;21.576;2022-11-03T14:09:37;11.80;;;4.70;;
45206;SDS011;30950;53.086;21.576;2022-11-03T14:12:05;14.38;;;5.07;;
45206;SDS011;30950;53.086;21.576;2022-11-03T14:14:51;16.65;;;5.22;;
45206;SDS011;30950;53.086;21.576;2022-11-03T14:17:18;15.50;;;5.72;;
45206;SDS011;30950;53.086;21.576;2022-11-03T14:19:46;14.70;;;6.25;;
45206;SDS011;30950;53.086;21.576;2022-11-03T14:22:19;14.95;;;7.25;;
45206;SDS011;30950;53.086;21.576;2022-11-03T14:24:46;15.15;;;8.32;;
45206;SDS011;30950;53.086;21.576;2022-11-03T14:27:14;20.13;;;8.70;;
45206;SDS011;30950;53.086;21.576;2022-11-03T14:29:42;19.40;;;8.32;;
45206;SDS011;30950;53.086;21.576;2022-11-03T14:32:10;24.73;;;9.65;;
45206;SDS011;30950;53.086;21.576;2022-11-03T14:34:38;26.52;;;12.90;;
45206;SDS011;30950;53.086;21.576;2022-11-03T14:37:05;22.75;;;11.75;;
45206;SDS011;30950;53.086;21.576;2022-11-03T14:39:36;26.35;;;13.77;;
45206;SDS011;30950;53.086;21.576;2022-11-03T14:42:06;32.40;;;15.52;;
45206;SDS011;30950;53.086;21.576;2022-11-03T14:44:41;29.52;;;14.07;;
45206;SDS011;30950;53.086;21.576;2022-11-03T14:47:13;20.80;;;12.40;;
45206;SDS011;30950;53.086;21.576;2022-11-03T14:49:44;25.58;;;10.85;;
45206;SDS011;30950;53.086;21.576;2022-11-03T14:52:12;21.80;;;10.43;;
45206;SDS011;30950;53.086;21.576;2022-11-03T14:54:40;17.73;;;9.63;;
45206;SDS011;30950;53.086;21.576;2022-11-03T14:57:08;19.48;;;9.27;;
45206;SDS011;30950;53.086;21.576;2022-11-03T14:59:36;20.65;;;9.40;;
45206;SDS011;30950;53.086;21.576;2022-11-03T15:02:03;20.60;;;10.40;;
45206;SDS011;30950;53.086;21.576;2022-11-03T15:04:32;26.60;;;10.63;;
45206;SDS011;30950;53.086;21.576;2022-11-03T15:06:59;24.75;;;10.82;;
45206;SDS011;30950;53.086;21.576;2022-11-03T15:09:26;24.58;;;11.15;;
45206;SDS011;30950;53.086;21.576;2022-11-03T15:11:54;24.17;;;11.30;;
45206;SDS011;30950;53.086;21.576;2022-11-03T15:14:21;23.13;;;11.35;;
45206;SDS011;30950;53.086;21.576;2022-11-03T15:16:49;20.58;;;10.88;;
45206;SDS011;30950;53.086;21.576;2022-11-03T15:19:16;25.77;;;9.95;;
45206;SDS011;30950;53.086;21.576;2022-11-03T15:21:43;29.58;;;11.40;;
45206;SDS011;30950;53.086;21.576;2022-11-03T15:24:11;20.13;;;11.38;;
45206;SDS011;30950;53.086;21.576;2022-11-03T15:26:58;18.30;;;8.50;;
45206;SDS011;30950;53.086;21.576;2022-11-03T15:29:25;23.48;;;9.23;;
45206;SDS011;30950;53.086;21.576;2022-11-03T15:31:53;18.30;;;8.90;;
45206;SDS011;30950;53.086;21.576;2022-11-03T15:34:20;19.85;;;9.07;;
45206;SDS011;30950;53.086;21.576;2022-11-03T15:36:47;25.02;;;9.27;;
45206;SDS011;30950;53.086;21.576;2022-11-03T15:39:15;21.70;;;9.02;;
45206;SDS011;30950;53.086;21.576;2022-11-03T15:41:43;21.17;;;9.73;;
45206;SDS011;30950;53.086;21.576;2022-11-03T15:44:10;29.23;;;13.55;;
45206;SDS011;30950;53.086;21.576;2022-11-03T15:46:38;22.85;;;9.57;;
45206;SDS011;30950;53.086;21.576;2022-11-03T15:49:05;20.80;;;10.60;;
45206;SDS011;30950;53.086;21.576;2022-11-03T15:51:32;34.78;;;15.45;;
45206;SDS011;30950;53.086;21.576;2022-11-03T15:54:00;33.10;;;15.32;;
45206;SDS011;30950;53.086;21.576;2022-11-03T15:56:28;35.65;;;17.63;;
45206;SDS011;30950;53.086;21.576;2022-11-03T15:58:56;40.38;;;22.35;;
45206;SDS011;30950;53.086;21.576;2022-11-03T16:01:23;49.33;;;25.35;;
45206;SDS011;30950;53.086;21.576;2022-11-03T16:03:51;44.40;;;22.70;;
45206;SDS011;30950;53.086;21.576;2022-11-03T16:06:18;44.35;;;24.48;;
45206;SDS011;30950;53.086;21.576;2022-11-03T16:09:06;46.78;;;25.40;;
45206;SDS011;30950;53.086;21.576;2022-11-03T16:11:33;45.42;;;24.27;;
45206;SDS011;30950;53.086;21.576;2022-11-03T16:14:01;50.50;;;25.52;;
45206;SDS011;30950;53.086;21.576;2022-11-03T16:16:28;43.10;;;22.60;;
45206;SDS011;30950;53.086;21.576;2022-11-03T16:18:56;45.47;;;24.20;;
45206;SDS011;30950;53.086;21.576;2022-11-03T16:21:23;45.75;;;26.73;;
45206;SDS011;30950;53.086;21.576;2022-11-03T16:23:50;54.47;;;32.08;;
45206;SDS011;30950;53.086;21.576;2022-11-03T16:26:18;56.88;;;33.63;;